createdAt,value
2022-09-04T00:02:45.015Z,15.52
2022-09-04T00:05:53.239Z,16.52
2022-09-04T00:08:55.682Z,16.52
2022-09-04T00:11:22.562Z,15.05
2022-09-04T00:14:07.095Z,17.27
2022-09-04T00:16:51.220Z,16.00
2022-09-04T00:19:36.210Z,16.92
2022-09-04T00:22:21.716Z,18.70
2022-09-04T00:25:01.374Z,18.38
2022-09-04T00:27:36.106Z,18.77
2022-09-04T00:30:11.507Z,20.73
2022-09-04T00:32:54.928Z,19.25
2022-09-04T00:35:32.454Z,19.92
2022-09-04T00:38:13.490Z,16.88
2022-09-04T00:40:50.047Z,20.13
2022-09-04T00:43:49.491Z,17.52
2022-09-04T00:46:41.415Z,16.75
2022-09-04T00:49:20.294Z,16.30
2022-09-04T00:52:05.591Z,16.92
2022-09-04T00:54:47.783Z,17.92
2022-09-04T00:57:45.464Z,16.80
2022-09-04T01:00:19.630Z,18.42
2022-09-04T01:03:07.470Z,18.35
2022-09-04T01:06:04.013Z,15.82
2022-09-04T01:08:40.831Z,18.38
2022-09-04T01:11:27.537Z,20.48
2022-09-04T01:14:13.420Z,18.08
2022-09-04T01:16:48.485Z,20.35
2022-09-04T01:19:56.147Z,18.08
2022-09-04T01:22:41.447Z,18.05
2022-09-04T01:25:30.794Z,17.33
2022-09-04T01:28:22.331Z,18.70
2022-09-04T01:31:26.619Z,19.20
2022-09-04T01:34:17.954Z,18.20
2022-09-04T01:37:05.868Z,20.50
2022-09-04T01:39:35.856Z,21.20
2022-09-04T01:42:12.959Z,20.95
2022-09-04T01:44:39.855Z,20.92
2022-09-04T01:47:28.832Z,21.13
2022-09-04T01:50:02.043Z,23.23
2022-09-04T01:53:07.164Z,19.95
2022-09-04T01:56:04.396Z,24.52
2022-09-04T01:58:40.817Z,22.98
2022-09-04T02:01:19.133Z,22.42
2022-09-04T02:04:08.181Z,23.23
2022-09-04T02:06:44.144Z,20.02
2022-09-04T02:09:16.592Z,23.33
2022-09-04T02:11:56.827Z,27.80
2022-09-04T02:14:27.507Z,26.10
2022-09-04T02:17:10.681Z,21.05
2022-09-04T02:20:01.497Z,22.25
2022-09-04T02:22:31.132Z,22.50
2022-09-04T02:25:11.395Z,23.30
2022-09-04T02:28:03.845Z,24.88
2022-09-04T02:30:41.157Z,23.88
2022-09-04T02:33:18.869Z,27.27
2022-09-04T02:36:44.580Z,22.30
2022-09-04T02:39:42.181Z,22.90
2022-09-04T02:42:18.150Z,24.58
2022-09-04T02:44:53.628Z,24.63
2022-09-04T02:47:38.656Z,23.17
2022-09-04T02:50:11.479Z,28.30
2022-09-04T02:55:48.511Z,20.23
2022-09-04T02:58:27.274Z,22.90
2022-09-04T03:01:03.065Z,22.67
2022-09-04T03:03:40.802Z,22.58
2022-09-04T03:06:13.554Z,18.42
2022-09-04T03:11:17.959Z,20.15
2022-09-04T03:13:59.391Z,24.00
2022-09-04T03:16:45.021Z,25.80
2022-09-04T03:19:40.367Z,19.48
2022-09-04T03:22:26.444Z,23.75
2022-09-04T03:25:24.019Z,23.17
2022-09-04T03:27:50.856Z,26.00
2022-09-04T03:30:18.564Z,23.35
2022-09-04T03:32:57.171Z,23.02
2022-09-04T03:35:42.120Z,22.17
2022-09-04T03:38:16.602Z,26.00
2022-09-04T03:41:13.161Z,29.58
2022-09-04T03:43:44.525Z,34.22
2022-09-04T03:46:17.316Z,36.00
2022-09-04T03:51:32.464Z,34.80
2022-09-04T03:54:26.027Z,29.25
2022-09-04T03:57:05.035Z,25.10
2022-09-04T03:59:56.594Z,18.85
2022-09-04T04:02:34.172Z,21.75
2022-09-04T04:05:36.956Z,18.73
2022-09-04T04:08:22.597Z,15.07
2022-09-04T04:11:35.260Z,17.73
2022-09-04T04:14:38.329Z,14.80
2022-09-04T04:17:12.751Z,16.38
2022-09-04T04:20:13.253Z,15.00
2022-09-04T04:22:39.971Z,15.30
2022-09-04T04:25:34.399Z,16.27
2022-09-04T04:28:17.151Z,17.88
2022-09-04T04:30:54.643Z,17.75
2022-09-04T04:33:24.441Z,15.98
2022-09-04T04:35:57.415Z,19.38
2022-09-04T04:38:34.534Z,19.40
2022-09-04T04:41:30.825Z,15.23
2022-09-04T04:44:03.700Z,16.13
2022-09-04T04:46:56.194Z,18.77
2022-09-04T04:49:48.608Z,14.27
2022-09-04T04:52:29.846Z,21.83
2022-09-04T04:55:18.003Z,14.93
2022-09-04T04:57:49.414Z,16.40
2022-09-04T05:00:40.234Z,14.93
2022-09-04T05:03:21.644Z,15.57
2022-09-04T05:06:01.057Z,14.25
2022-09-04T05:08:39.800Z,11.98
2022-09-04T05:11:16.482Z,13.95
2022-09-04T05:13:59.404Z,12.45
2022-09-04T05:16:35.283Z,11.43
2022-09-04T05:59:28.283Z,9.63
2022-09-04T06:02:26.861Z,7.53
2022-09-04T06:05:19.148Z,9.98
2022-09-04T06:08:07.055Z,6.50
2022-09-04T06:11:18.508Z,6.72
2022-09-04T06:13:59.465Z,6.32
2022-09-04T06:17:01.702Z,7.05
2022-09-04T06:19:53.272Z,8.47
2022-09-04T06:22:39.763Z,5.57
2022-09-04T06:25:13.780Z,7.55
2022-09-04T06:27:52.343Z,10.23
2022-09-04T06:30:19.482Z,5.80
2022-09-04T06:33:17.353Z,11.27
2022-09-04T06:36:12.334Z,7.80
2022-09-04T06:38:57.414Z,10.43
2022-09-04T06:41:39.202Z,11.23
2022-09-04T06:44:24.544Z,9.32
2022-09-04T06:47:12.848Z,9.50
2022-09-04T06:50:11.681Z,9.73
2022-09-04T06:52:57.671Z,6.05
2022-09-04T06:55:50.985Z,4.88
2022-09-04T06:58:46.187Z,4.20
2022-09-04T07:01:50.506Z,7.35
2022-09-04T07:04:35.731Z,3.67
2022-09-04T07:07:26.870Z,3.58
2022-09-04T07:10:01.495Z,6.30
2022-09-04T07:12:42.830Z,5.90
2022-09-04T07:15:31.564Z,4.68
2022-09-04T07:18:09.631Z,7.35
2022-09-04T07:20:49.249Z,2.92
2022-09-04T07:23:27.632Z,3.08
2022-09-04T07:26:05.275Z,3.38
2022-09-04T07:28:52.069Z,4.63
2022-09-04T07:31:22.337Z,3.63
2022-09-04T07:34:07.830Z,2.92
2022-09-04T07:37:00.163Z,3.33
2022-09-04T07:39:50.797Z,6.60
2022-09-04T07:42:26.580Z,4.18
2022-09-04T07:45:06.026Z,7.60
2022-09-04T07:47:57.587Z,7.57
2022-09-04T07:51:16.833Z,8.00
2022-09-04T07:53:49.545Z,6.93
2022-09-04T07:56:28.636Z,7.05
2022-09-04T07:59:21.661Z,4.80
2022-09-04T08:02:06.681Z,5.80
2022-09-04T08:04:51.739Z,5.97
2022-09-04T08:07:42.009Z,4.45
2022-09-04T08:10:33.866Z,4.03
2022-09-04T08:13:14.139Z,7.83
2022-09-04T08:15:51.471Z,3.63
2022-09-04T08:18:33.671Z,4.60
2022-09-04T08:21:12.094Z,3.00
2022-09-04T08:23:59.407Z,4.47
2022-09-04T08:26:51.871Z,2.80
2022-09-04T08:29:52.719Z,3.17
2022-09-04T08:32:28.555Z,4.55
2022-09-04T08:35:23.284Z,3.17
2022-09-04T08:38:08.587Z,5.22
2022-09-04T08:40:44.383Z,3.30
2022-09-04T08:43:48.597Z,8.43
2022-09-04T08:47:12.829Z,3.55
2022-09-04T08:50:04.295Z,3.50
2022-09-04T08:53:12.369Z,3.20
2022-09-04T08:56:22.662Z,6.75
2022-09-04T08:59:27.299Z,5.80
2022-09-04T09:02:09.074Z,4.30
2022-09-04T09:05:00.812Z,4.07
2022-09-04T09:07:33.767Z,1.90
2022-09-04T09:10:34.626Z,2.17
2022-09-04T09:13:46.127Z,11.25
2022-09-04T09:16:36.494Z,1.80
2022-09-04T09:19:25.929Z,2.17
2022-09-04T09:22:33.860Z,2.25
2022-09-04T09:25:11.974Z,2.40
2022-09-04T09:27:38.824Z,4.82
2022-09-04T09:30:16.668Z,3.03
2022-09-04T09:33:08.428Z,3.03
2022-09-04T09:35:55.891Z,2.15
2022-09-04T09:38:36.024Z,1.70
2022-09-04T09:41:37.638Z,2.67
2022-09-04T09:44:49.496Z,2.17
2022-09-04T09:47:40.853Z,3.78
2022-09-04T09:50:16.788Z,2.40
2022-09-04T09:52:52.770Z,3.95
2022-09-04T09:55:31.847Z,2.05
2022-09-04T09:58:13.788Z,2.25
2022-09-04T10:01:09.449Z,2.55
2022-09-04T10:03:39.207Z,1.80
2022-09-04T10:06:21.882Z,2.80
2022-09-04T10:08:51.405Z,1.52
2022-09-04T10:11:30.073Z,1.40
2022-09-04T10:14:02.508Z,2.70
2022-09-04T10:17:03.550Z,1.98
2022-09-04T10:20:08.740Z,2.63
2022-09-04T10:22:57.317Z,3.15
2022-09-04T10:25:31.158Z,2.50
2022-09-04T10:28:19.750Z,1.63
2022-09-04T10:31:05.171Z,1.40
2022-09-04T10:34:29.746Z,1.77
2022-09-04T10:37:15.186Z,2.45
2022-09-04T10:40:22.376Z,5.10
2022-09-04T10:43:26.627Z,6.88
2022-09-04T10:45:56.184Z,4.75
2022-09-04T10:48:54.269Z,3.45
2022-09-04T10:51:39.541Z,5.75
2022-09-04T10:54:30.737Z,2.50
2022-09-04T10:57:18.536Z,1.30
2022-09-04T11:00:21.996Z,3.17
2022-09-04T11:03:27.960Z,1.90
2022-09-04T11:06:15.733Z,2.50
2022-09-04T11:09:13.981Z,5.47
2022-09-04T11:11:46.752Z,1.40
2022-09-04T11:14:25.508Z,1.50
2022-09-04T11:17:37.734Z,2.15
2022-09-04T11:20:26.099Z,3.08
2022-09-04T11:23:11.348Z,2.67
2022-09-04T11:26:11.209Z,3.15
2022-09-04T11:29:12.811Z,2.25
2022-09-04T11:31:58.451Z,3.25
2022-09-04T11:35:02.453Z,2.58
2022-09-04T11:37:57.770Z,2.90
2022-09-04T11:40:43.484Z,3.05
2022-09-04T11:43:32.199Z,1.33
2022-09-04T11:46:30.262Z,2.70
2022-09-04T11:49:15.668Z,2.55
2022-09-04T11:51:45.327Z,1.27
2022-09-04T11:54:33.538Z,1.75
2022-09-04T11:57:04.815Z,2.22
2022-09-04T12:00:10.980Z,3.10
2022-09-04T12:03:05.571Z,2.63
2022-09-04T12:05:47.163Z,2.33
2022-09-04T12:08:32.679Z,1.88
2022-09-04T12:11:21.134Z,2.70
2022-09-04T12:14:02.054Z,3.13
2022-09-04T12:16:47.633Z,1.52
2022-09-04T12:19:50.427Z,1.63
2022-09-04T12:22:36.337Z,3.10
2022-09-04T12:25:26.169Z,3.08
2022-09-04T12:28:08.877Z,1.67
2022-09-04T12:30:54.408Z,2.40
2022-09-04T12:33:36.515Z,3.00
2022-09-04T12:36:15.468Z,1.38
2022-09-04T12:39:04.108Z,2.97
2022-09-04T12:41:46.852Z,2.17
2022-09-04T12:44:42.298Z,4.75
2022-09-04T12:47:15.609Z,7.32
2022-09-04T12:50:37.662Z,3.63
2022-09-04T12:53:32.163Z,4.75
2022-09-04T12:56:12.610Z,1.58
2022-09-04T12:59:11.485Z,16.75
2022-09-04T13:02:09.831Z,2.88
2022-09-04T13:04:49.541Z,1.58
2022-09-04T13:07:54.534Z,1.30
2022-09-04T13:11:08.896Z,1.10
2022-09-04T13:13:48.059Z,1.92
2022-09-04T13:16:41.227Z,1.95
2022-09-04T13:19:49.578Z,3.15
2022-09-04T13:22:39.591Z,4.40
2022-09-04T13:25:49.637Z,4.70
2022-09-04T13:28:45.369Z,3.03
2022-09-04T13:31:43.435Z,4.03
2022-09-04T13:34:13.515Z,2.20
2022-09-04T13:36:49.728Z,6.13
2022-09-04T13:39:31.810Z,5.40
2022-09-04T13:42:08.870Z,2.15
2022-09-04T13:44:40.944Z,2.83
2022-09-04T13:47:16.438Z,4.72
2022-09-04T13:49:53.415Z,3.70
2022-09-04T13:52:34.629Z,4.78
2022-09-04T13:55:06.066Z,1.95
2022-09-04T13:57:40.191Z,3.40
2022-09-04T14:00:08.134Z,2.45
2022-09-04T14:02:36.796Z,2.58
2022-09-04T14:05:25.710Z,4.15
2022-09-04T14:08:04.213Z,3.63
2022-09-04T14:10:55.846Z,2.70
2022-09-04T14:13:33.165Z,4.35
2022-09-04T14:16:11.645Z,3.33
2022-09-04T14:19:13.450Z,2.78
2022-09-04T14:22:02.519Z,2.80
2022-09-04T14:24:56.448Z,7.25
2022-09-04T14:27:48.387Z,4.65
2022-09-04T14:30:16.940Z,6.38
2022-09-04T14:33:07.256Z,5.47
2022-09-04T14:35:46.723Z,5.60
2022-09-04T14:38:35.250Z,6.68
2022-09-04T14:41:35.853Z,3.67
2022-09-04T14:44:17.418Z,4.53
2022-09-04T14:47:09.802Z,3.38
2022-09-04T14:49:48.261Z,3.90
2022-09-04T14:52:28.143Z,3.42
2022-09-04T14:54:58.167Z,3.75
2022-09-04T14:57:43.092Z,3.28
2022-09-04T15:00:17.417Z,2.90
2022-09-04T15:03:13.337Z,3.60
2022-09-04T15:05:56.711Z,3.45
2022-09-04T15:08:39.876Z,5.95
2022-09-04T15:11:13.260Z,8.07
2022-09-04T15:13:53.319Z,6.18
2022-09-04T15:16:23.392Z,3.40
2022-09-04T15:19:29.017Z,4.60
2022-09-04T15:22:18.883Z,6.35
2022-09-04T15:25:09.007Z,9.52
2022-09-04T15:27:46.115Z,8.93
2022-09-04T15:30:33.611Z,7.00
2022-09-04T15:33:08.233Z,8.30
2022-09-04T15:35:36.010Z,11.40
2022-09-04T15:38:21.160Z,7.70
2022-09-04T15:41:16.780Z,8.93
2022-09-04T15:43:51.546Z,9.30
2022-09-04T15:46:33.181Z,7.10
2022-09-04T15:49:41.968Z,9.27
2022-09-04T15:52:12.691Z,17.55
2022-09-04T15:54:42.230Z,11.13
2022-09-04T15:57:20.120Z,11.82
2022-09-04T15:59:59.077Z,7.63
2022-09-04T16:03:17.446Z,9.55
2022-09-04T16:05:52.509Z,11.77
2022-09-04T16:08:26.165Z,12.63
2022-09-04T16:11:20.982Z,7.97
2022-09-04T16:13:50.611Z,7.18
2022-09-04T16:16:25.876Z,9.73
2022-09-04T16:18:52.714Z,10.35
2022-09-04T16:21:40.694Z,8.32
2022-09-04T16:24:30.725Z,8.50
2022-09-04T16:26:58.852Z,9.15
2022-09-04T16:29:36.369Z,10.00
2022-09-04T16:32:09.851Z,7.25
2022-09-04T16:34:45.277Z,11.45
2022-09-04T16:37:19.329Z,11.15
2022-09-04T16:39:59.251Z,9.77
2022-09-04T16:42:45.780Z,9.43
2022-09-04T16:45:30.511Z,15.35
2022-09-04T16:48:15.791Z,13.57
2022-09-04T16:51:40.343Z,17.75
2022-09-04T16:54:17.262Z,14.55
2022-09-04T16:56:53.402Z,16.30
2022-09-04T17:00:22.462Z,17.38
2022-09-04T17:02:52.076Z,14.55
2022-09-04T17:05:28.794Z,19.25
2022-09-04T17:08:07.630Z,16.48
2022-09-04T17:10:59.566Z,23.02
2022-09-04T17:14:08.550Z,10.07
2022-09-04T17:17:31.408Z,12.05
2022-09-04T17:20:23.089Z,16.02
2022-09-04T17:28:59.415Z,11.07
2022-09-04T17:29:10.111Z,9.55
2022-09-04T17:29:58.527Z,8.27
2022-09-04T17:36:41.748Z,9.07
2022-09-04T17:40:39.844Z,9.77
2022-09-04T17:40:48.837Z,7.38
2022-09-04T17:42:08.344Z,7.97
2022-09-04T17:45:06.190Z,10.43
2022-09-04T17:47:41.589Z,6.53
2022-09-04T17:50:14.000Z,9.57
2022-09-04T17:53:01.618Z,13.60
2022-09-04T17:55:38.727Z,7.80
2022-09-04T17:58:21.990Z,11.70
2022-09-04T18:04:22.248Z,13.70
2022-09-04T18:07:50.990Z,16.38
2022-09-04T18:10:12.016Z,15.27
2022-09-04T18:13:36.453Z,16.88
2022-09-04T18:16:18.282Z,17.10
2022-09-04T18:18:54.685Z,9.70
2022-09-04T18:21:37.230Z,14.88
2022-09-04T18:24:19.309Z,10.68
2022-09-04T18:27:02.556Z,11.90
2022-09-04T18:36:15.587Z,13.57
2022-09-04T18:37:22.650Z,11.68
2022-09-04T18:37:25.323Z,12.50
2022-09-04T18:39:11.585Z,9.27
2022-09-04T18:47:17.407Z,8.63
2022-09-04T18:50:22.333Z,8.23
2022-09-04T18:50:33.994Z,7.95
2022-09-04T18:51:20.148Z,9.20
2022-09-04T18:54:10.015Z,10.32
2022-09-04T18:56:45.325Z,11.55
2022-09-04T18:59:24.813Z,12.73
2022-09-04T19:02:11.702Z,8.85
2022-09-04T19:05:00.499Z,8.30
2022-09-04T19:07:35.262Z,13.20
2022-09-04T19:10:17.258Z,15.52
2022-09-04T19:12:56.047Z,15.82
2022-09-04T19:15:55.915Z,12.63
2022-09-04T19:18:43.624Z,15.43
2022-09-04T19:21:14.810Z,16.35
2022-09-04T19:23:41.921Z,17.05
2022-09-04T19:26:38.481Z,16.00
2022-09-04T19:29:11.166Z,14.80
2022-09-04T19:31:44.416Z,11.10
2022-09-04T19:34:28.416Z,8.15
2022-09-04T19:37:50.224Z,7.57
2022-09-04T19:46:05.271Z,8.27
2022-09-04T19:46:07.278Z,7.57
2022-09-04T19:46:28.250Z,10.15
2022-09-04T19:50:54.040Z,8.18
2022-09-04T19:53:30.049Z,7.85
2022-09-04T19:55:24.594Z,8.75
2022-09-04T19:58:11.943Z,9.90
2022-09-04T20:00:54.873Z,10.18
2022-09-04T20:03:43.249Z,10.40
2022-09-04T20:06:32.653Z,10.93
2022-09-04T20:09:02.186Z,10.48
2022-09-04T20:11:40.932Z,10.68
2022-09-04T20:14:19.691Z,9.75
2022-09-04T20:17:01.021Z,9.13
2022-09-04T20:19:51.525Z,9.30
2022-09-04T20:22:37.356Z,12.25
2022-09-04T20:25:04.088Z,9.48
2022-09-04T20:27:36.521Z,10.63
2022-09-04T20:30:12.742Z,9.18
2022-09-04T20:32:53.938Z,8.82
2022-09-04T20:35:44.987Z,12.48
2022-09-04T20:38:33.120Z,11.65
2022-09-04T20:41:20.333Z,9.25
2022-09-04T20:44:03.474Z,10.20
2022-09-04T20:52:43.030Z,8.60
2022-09-04T20:52:58.245Z,13.80
2022-09-04T20:53:05.902Z,10.20
2022-09-04T20:55:46.275Z,12.93
2022-09-04T21:03:11.525Z,14.82
2022-09-04T21:03:20.865Z,16.95
2022-09-04T21:04:42.610Z,17.90
2022-09-04T21:07:37.958Z,18.55
2022-09-04T21:10:24.002Z,17.83
2022-09-04T21:13:14.025Z,16.13
2022-09-04T21:15:47.142Z,18.63
2022-09-04T21:18:22.599Z,19.23
2022-09-04T21:20:59.794Z,20.50
2022-09-04T21:24:03.244Z,22.60
2022-09-04T21:26:36.840Z,17.23
2022-09-04T21:32:21.097Z,18.58
2022-09-04T21:35:13.396Z,18.92
2022-09-04T21:38:08.940Z,19.38
2022-09-04T21:40:52.779Z,18.80
2022-09-04T21:43:47.190Z,14.75
2022-09-04T21:46:58.074Z,17.00
2022-09-04T21:50:15.498Z,13.90
2022-09-04T21:53:01.054Z,15.55
2022-09-04T21:59:15.410Z,16.10
2022-09-04T22:02:35.357Z,16.15
2022-09-04T22:02:36.515Z,12.00
2022-09-04T22:04:58.265Z,15.15
2022-09-04T22:10:49.472Z,11.95
2022-09-04T22:13:37.628Z,10.77
2022-09-04T22:14:15.649Z,13.45
2022-09-04T22:17:06.762Z,13.90
2022-09-04T22:19:55.045Z,12.07
2022-09-04T22:22:49.708Z,11.00
2022-09-04T22:25:45.066Z,12.90
2022-09-04T22:28:42.967Z,11.88
2022-09-04T22:31:29.192Z,13.50
2022-09-04T22:34:40.952Z,10.30
2022-09-04T22:37:35.702Z,9.43
2022-09-04T22:40:26.002Z,8.85
2022-09-04T22:43:15.872Z,9.45
2022-09-04T22:46:17.946Z,11.60
2022-09-04T22:49:12.125Z,17.08
2022-09-04T22:52:17.448Z,16.80
2022-09-04T22:55:36.147Z,16.67
2022-09-04T22:58:21.925Z,15.00
2022-09-04T23:01:25.171Z,14.15
2022-09-04T23:04:10.880Z,14.48
2022-09-04T23:12:42.773Z,17.20
2022-09-04T23:13:43.965Z,13.35
2022-09-04T23:13:57.503Z,15.52
2022-09-04T23:15:36.327Z,15.00
2022-09-04T23:23:00.047Z,16.63
2022-09-04T23:26:38.495Z,16.65
2022-09-04T23:26:44.301Z,15.65
2022-09-04T23:28:21.438Z,19.30
2022-09-04T23:31:11.248Z,16.48
2022-09-04T23:34:36.777Z,17.88
2022-09-04T23:37:24.507Z,16.17
2022-09-04T23:40:25.687Z,14.20
2022-09-04T23:43:21.318Z,15.90
2022-09-04T23:46:23.641Z,13.23
2022-09-04T23:49:28.370Z,15.05
2022-09-04T23:51:55.151Z,13.40
2022-09-04T23:54:30.914Z,11.68
2022-09-04T23:57:16.882Z,14.20
